Time;durP1;ratioP1;P1;durP2;ratioP2;P2;SDS_P1;SDS_P2;PMS_P1;PMS_P2;Temp;Humidity;BMP_temperature;BMP_pressure;BME280_temperature;BME280_humidity;BME280_pressure;Samples;Min_cycle;Max_cycle;Signal;HPM_P1;HPM_P2
2021/08/13 00:02:19;;;;;;;10.70;6.27;;;17.00;99.90;;;;;;4440626;32;20154;-76
2021/08/13 00:04:46;;;;;;;11.90;6.47;;;17.00;99.90;;;;;;4439566;32;20142;-76
2021/08/13 00:07:13;;;;;;;10.17;6.47;;;17.00;99.90;;;;;;4440644;32;20154;-76
2021/08/13 00:09:40;;;;;;;10.47;6.33;;;17.00;99.90;;;;;;4438795;32;20138;-76
2021/08/13 00:12:08;;;;;;;8.67;6.20;;;17.00;99.90;;;;;;4438222;32;20147;-76
2021/08/13 00:14:35;;;;;;;9.87;5.90;;;17.00;99.90;;;;;;4440531;32;20410;-76
2021/08/13 00:17:02;;;;;;;9.30;6.20;;;16.90;99.90;;;;;;4438970;32;20241;-77
2021/08/13 00:19:29;;;;;;;9.00;5.57;;;16.90;99.90;;;;;;4439225;32;20191;-76
2021/08/13 00:21:55;;;;;;;9.67;6.10;;;16.90;99.90;;;;;;4438885;32;20468;-76
2021/08/13 00:24:22;;;;;;;9.60;6.17;;;16.90;99.90;;;;;;4440693;32;20165;-77
2021/08/13 00:26:49;;;;;;;8.13;5.97;;;16.90;99.90;;;;;;4439820;32;20481;-76
2021/08/13 00:29:16;;;;;;;9.27;6.00;;;16.80;99.90;;;;;;4438346;32;20211;-77
2021/08/13 00:31:42;;;;;;;9.50;6.03;;;16.80;99.90;;;;;;4438832;32;20219;-77
2021/08/13 00:34:09;;;;;;;9.77;6.30;;;16.80;99.90;;;;;;4438523;32;20142;-77
2021/08/13 00:36:36;;;;;;;10.70;5.90;;;16.70;99.90;;;;;;4440446;32;20131;-77
2021/08/13 00:39:03;;;;;;;8.10;5.70;;;16.70;99.90;;;;;;4440554;32;20456;-77
2021/08/13 00:41:30;;;;;;;10.23;5.70;;;16.70;99.90;;;;;;4440155;32;20529;-76
2021/08/13 00:43:57;;;;;;;11.13;6.10;;;16.60;99.90;;;;;;4440320;32;20131;-76
2021/08/13 00:46:23;;;;;;;8.97;6.03;;;16.60;99.90;;;;;;4440316;32;20182;-76
2021/08/13 00:48:51;;;;;;;8.97;5.90;;;16.50;99.90;;;;;;4440264;32;20398;-77
2021/08/13 00:51:17;;;;;;;10.10;5.90;;;16.50;99.90;;;;;;4440328;32;20135;-77
2021/08/13 00:53:45;;;;;;;8.07;5.80;;;16.50;99.90;;;;;;4439893;32;20501;-77
2021/08/13 00:56:12;;;;;;;11.33;6.17;;;16.40;99.90;;;;;;4440111;32;20138;-77
2021/08/13 00:58:39;;;;;;;9.57;6.40;;;16.40;99.90;;;;;;4440091;32;20147;-77
2021/08/13 01:01:06;;;;;;;9.07;6.70;;;16.40;99.90;;;;;;4439993;32;20135;-77
2021/08/13 01:03:33;;;;;;;12.03;6.23;;;16.40;99.90;;;;;;4438584;32;20281;-77
2021/08/13 01:06:00;;;;;;;9.70;6.33;;;16.30;99.90;;;;;;4438390;32;20514;-77
2021/08/13 01:08:27;;;;;;;10.77;6.40;;;16.30;99.90;;;;;;4439855;32;20143;-77
2021/08/13 01:11:12;;;;;;;9.67;5.87;;;16.30;99.90;;;;;;4439805;32;20386;-77
2021/08/13 01:13:55;;;;;;;11.23;6.30;;;16.30;99.90;;;;;;4438275;32;20283;-77
2021/08/13 01:16:26;;;;;;;10.37;6.10;;;16.30;99.90;;;;;;4439452;32;20244;-77
2021/08/13 01:19:04;;;;;;;9.10;6.53;;;16.30;99.90;;;;;;4438632;32;20207;-77
2021/08/13 01:21:36;;;;;;;8.40;6.17;;;16.30;99.90;;;;;;4438379;32;20146;-77
2021/08/13 01:24:11;;;;;;;7.40;5.73;;;16.30;99.90;;;;;;4439218;32;20126;-77
2021/08/13 01:26:49;;;;;;;10.43;6.20;;;16.30;99.90;;;;;;4440998;32;20126;-77
2021/08/13 01:29:35;;;;;;;9.50;6.17;;;16.30;99.90;;;;;;4438654;32;20182;-77
2021/08/13 01:32:12;;;;;;;9.17;6.03;;;16.20;99.90;;;;;;4438016;32;20207;-77
2021/08/13 01:34:47;;;;;;;9.73;6.27;;;16.20;99.90;;;;;;4438029;32;20146;-77
2021/08/13 01:37:17;;;;;;;11.33;6.20;;;16.20;99.90;;;;;;4438159;32;20175;-77
2021/08/13 01:39:46;;;;;;;8.23;5.80;;;16.20;99.90;;;;;;4438883;32;20143;-77
2021/08/13 01:42:13;;;;;;;9.47;6.33;;;16.20;99.90;;;;;;4439047;32;20229;-77
2021/08/13 01:44:41;;;;;;;8.47;5.90;;;16.10;99.90;;;;;;4438083;32;20524;-77
2021/08/13 01:47:08;;;;;;;10.80;6.70;;;16.10;99.90;;;;;;4438171;32;20176;-77
2021/08/13 01:49:36;;;;;;;10.77;6.17;;;16.10;99.90;;;;;;4439897;32;20135;-77
2021/08/13 01:52:04;;;;;;;8.80;5.73;;;16.10;99.90;;;;;;4439476;32;20139;-77
2021/08/13 01:54:32;;;;;;;8.30;6.27;;;16.00;99.90;;;;;;4439803;32;20142;-77
2021/08/13 01:56:59;;;;;;;9.33;6.10;;;16.00;99.90;;;;;;4439769;32;20184;-77
2021/08/13 01:59:26;;;;;;;10.90;6.70;;;16.00;99.90;;;;;;4438282;32;20204;-77
2021/08/13 02:01:53;;;;;;;10.47;6.77;;;16.00;99.90;;;;;;4437879;32;20572;-77
2021/08/13 02:04:20;;;;;;;11.37;6.63;;;15.90;99.90;;;;;;4439763;32;20126;-76
2021/08/13 02:06:49;;;;;;;8.67;6.00;;;16.00;99.90;;;;;;4441399;32;20250;-76
2021/08/13 02:09:17;;;;;;;11.27;6.67;;;16.00;99.90;;;;;;4440958;32;20452;-77
2021/08/13 02:11:44;;;;;;;8.57;5.90;;;15.90;99.90;;;;;;4441149;32;20179;-77
2021/08/13 02:14:12;;;;;;;9.63;6.10;;;16.00;99.90;;;;;;4440609;32;20157;-77
2021/08/13 02:16:41;;;;;;;9.57;6.57;;;15.90;99.90;;;;;;4442364;32;20187;-77
2021/08/13 02:19:14;;;;;;;8.57;5.77;;;16.00;99.90;;;;;;4440972;32;20139;-78
2021/08/13 02:21:46;;;;;;;10.53;6.03;;;15.90;99.90;;;;;;4440497;32;20130;-77
2021/08/13 02:24:13;;;;;;;9.10;6.40;;;15.90;99.90;;;;;;4442447;32;20214;-78
2021/08/13 02:26:39;;;;;;;8.20;6.20;;;15.90;99.90;;;;;;4442176;32;20135;-78
2021/08/13 02:29:06;;;;;;;8.37;6.00;;;15.90;99.90;;;;;;4440463;32;20527;-77
2021/08/13 02:31:33;;;;;;;8.53;6.20;;;15.80;99.90;;;;;;4440557;32;20170;-77
2021/08/13 02:34:00;;;;;;;10.17;6.70;;;15.90;99.90;;;;;;4442316;32;20142;-78
2021/08/13 02:36:46;;;;;;;11.47;6.33;;;15.90;99.90;;;;;;4442120;32;20227;-78
2021/08/13 02:39:28;;;;;;;10.93;6.03;;;15.80;99.90;;;;;;4441901;32;20461;-77
2021/08/13 02:41:59;;;;;;;9.13;6.53;;;15.80;99.90;;;;;;4442255;32;20131;-79
2021/08/13 02:44:29;;;;;;;9.40;6.50;;;15.70;99.90;;;;;;4441702;32;20138;-77
2021/08/13 02:47:01;;;;;;;10.37;6.30;;;15.70;99.90;;;;;;4442057;32;20142;-75
2021/08/13 02:49:28;;;;;;;9.90;6.33;;;15.70;99.90;;;;;;4442060;32;20127;-77
2021/08/13 02:52:03;;;;;;;9.07;6.30;;;15.60;99.90;;;;;;4439984;32;20423;-77
2021/08/13 02:54:32;;;;;;;8.90;6.27;;;15.60;99.90;;;;;;4440053;32;20199;-77
2021/08/13 02:57:01;;;;;;;10.53;6.63;;;15.50;99.90;;;;;;4441869;32;20123;-78
2021/08/13 02:59:31;;;;;;;8.83;6.33;;;15.40;99.90;;;;;;4439992;32;20150;-77
2021/08/13 03:02:01;;;;;;;9.90;6.93;;;15.40;99.90;;;;;;4441277;32;20154;-77
2021/08/13 03:04:32;;;;;;;8.87;6.87;;;15.30;99.90;;;;;;4440996;32;20122;-78
2021/08/13 03:06:59;;;;;;;10.10;6.87;;;15.30;99.90;;;;;;4439829;32;20190;-77
2021/08/13 03:09:27;;;;;;;8.90;6.60;;;15.30;99.90;;;;;;4441598;32;20161;-77
2021/08/13 03:11:55;;;;;;;11.27;7.00;;;15.20;99.90;;;;;;4441637;32;20180;-77
2021/08/13 03:14:23;;;;;;;10.07;6.90;;;15.20;99.90;;;;;;4439504;32;20158;-78
2021/08/13 03:16:51;;;;;;;9.93;7.00;;;15.10;99.90;;;;;;4440437;32;20131;-77
2021/08/13 03:19:20;;;;;;;9.57;7.03;;;15.10;99.90;;;;;;4441433;32;20146;-77
2021/08/13 03:21:47;;;;;;;10.23;7.17;;;15.10;99.90;;;;;;4441387;32;20287;-77
2021/08/13 03:24:15;;;;;;;10.10;6.90;;;15.10;99.90;;;;;;4439230;32;20138;-77
2021/08/13 03:26:42;;;;;;;9.37;6.70;;;15.00;99.90;;;;;;4441220;32;20550;-77
2021/08/13 03:29:09;;;;;;;10.77;7.33;;;15.00;99.90;;;;;;4440359;32;20154;-77
2021/08/13 03:31:43;;;;;;;9.60;7.00;;;14.90;99.90;;;;;;4441268;32;20198;-77
2021/08/13 03:34:12;;;;;;;11.47;7.33;;;14.90;99.90;;;;;;4441190;32;20204;-77
2021/08/13 03:36:40;;;;;;;9.80;7.10;;;14.90;99.90;;;;;;4440116;32;20533;-77
2021/08/13 03:39:10;;;;;;;13.73;7.53;;;14.90;99.90;;;;;;4441456;32;20138;-77
2021/08/13 03:41:37;;;;;;;10.53;7.10;;;14.90;99.90;;;;;;4439857;32;20142;-77
2021/08/13 03:44:05;;;;;;;9.87;6.73;;;14.90;99.90;;;;;;4441288;32;20203;-77
2021/08/13 03:46:31;;;;;;;13.27;7.87;;;14.90;99.90;;;;;;4440821;32;20158;-77
2021/08/13 03:48:58;;;;;;;10.13;7.67;;;14.80;99.90;;;;;;4441128;32;20127;-77
2021/08/13 03:51:25;;;;;;;9.93;7.10;;;14.80;99.90;;;;;;4439637;32;20157;-77
2021/08/13 03:53:52;;;;;;;10.87;7.00;;;14.80;99.90;;;;;;4441844;32;20214;-78
2021/08/13 03:56:19;;;;;;;11.70;7.23;;;14.90;99.90;;;;;;4441256;32;20175;-78
2021/08/13 03:58:45;;;;;;;11.50;7.70;;;14.80;99.90;;;;;;4439273;32;20158;-78
2021/08/13 04:01:12;;;;;;;11.03;7.13;;;14.90;99.90;;;;;;4439924;32;20126;-78
2021/08/13 04:03:39;;;;;;;10.83;7.20;;;14.90;99.90;;;;;;4440095;32;20157;-78
2021/08/13 04:06:06;;;;;;;11.87;7.10;;;14.90;99.90;;;;;;4440887;32;20135;-78
2021/08/13 04:08:33;;;;;;;11.20;7.17;;;15.00;99.90;;;;;;4440816;32;20134;-78
2021/08/13 04:10:59;;;;;;;11.37;7.37;;;15.00;99.90;;;;;;4440636;32;20139;-78
2021/08/13 04:13:26;;;;;;;11.33;6.70;;;15.00;99.90;;;;;;4440541;32;20134;-77
2021/08/13 04:15:53;;;;;;;9.67;6.93;;;15.00;99.90;;;;;;4440489;32;20207;-77
2021/08/13 04:18:20;;;;;;;9.67;7.10;;;15.00;99.90;;;;;;4440628;32;20146;-77
2021/08/13 04:20:47;;;;;;;10.10;6.83;;;15.00;99.90;;;;;;4440236;32;20307;-76
2021/08/13 04:23:13;;;;;;;12.83;7.50;;;15.00;99.90;;;;;;4440349;32;20364;-76
2021/08/13 04:25:40;;;;;;;11.90;7.43;;;15.00;99.90;;;;;;4440551;32;20176;-76
2021/08/13 04:28:07;;;;;;;11.40;7.70;;;15.00;99.90;;;;;;4439699;32;20151;-76
2021/08/13 04:30:34;;;;;;;11.37;7.53;;;15.10;99.90;;;;;;4438439;32;20185;-76
2021/08/13 04:33:10;;;;;;;9.90;7.50;;;15.10;99.90;;;;;;4440198;32;20183;-76
2021/08/13 04:35:37;;;;;;;13.80;7.87;;;15.20;99.90;;;;;;4439506;32;20415;-76
2021/08/13 04:38:05;;;;;;;10.07;7.60;;;15.20;99.90;;;;;;4438761;32;20515;-76
2021/08/13 04:40:32;;;;;;;12.13;7.90;;;15.30;99.90;;;;;;4440266;32;20245;-76
2021/08/13 04:43:00;;;;;;;10.73;7.63;;;15.30;99.90;;;;;;4440094;32;20339;-76
2021/08/13 04:45:27;;;;;;;12.10;7.70;;;15.40;99.90;;;;;;4439394;32;20412;-76
2021/08/13 04:47:54;;;;;;;12.67;7.73;;;15.50;99.90;;;;;;4439161;32;20232;-76
2021/08/13 04:50:21;;;;;;;10.73;7.77;;;15.50;99.90;;;;;;4438293;32;20486;-76
2021/08/13 04:52:50;;;;;;;12.37;7.80;;;15.60;99.90;;;;;;4438885;32;20427;-76
2021/08/13 04:55:20;;;;;;;10.13;7.07;;;15.70;99.90;;;;;;4440112;32;20146;-76
2021/08/13 04:57:47;;;;;;;9.50;6.77;;;15.80;99.90;;;;;;4439581;32;20203;-76
2021/08/13 05:00:15;;;;;;;10.57;6.90;;;16.00;99.90;;;;;;4440044;32;20398;-76
2021/08/13 05:02:42;;;;;;;10.83;6.83;;;16.10;99.90;;;;;;4438989;32;20395;-77
2021/08/13 05:05:10;;;;;;;11.40;6.73;;;16.20;99.90;;;;;;4440222;32;20135;-76
2021/08/13 05:07:37;;;;;;;10.70;7.03;;;16.40;99.90;;;;;;4440403;32;20143;-77
2021/08/13 05:10:12;;;;;;;9.73;6.53;;;16.40;99.90;;;;;;4438088;32;20142;-76
2021/08/13 05:12:40;;;;;;;9.80;6.53;;;16.50;99.90;;;;;;4438423;32;20182;-76
2021/08/13 05:15:08;;;;;;;9.47;6.33;;;16.60;99.90;;;;;;4438413;32;20246;-77
2021/08/13 05:17:36;;;;;;;9.03;6.07;;;16.70;99.90;;;;;;4438456;32;20135;-76
2021/08/13 05:20:04;;;;;;;9.90;6.17;;;16.80;99.90;;;;;;4439918;32;20176;-75
2021/08/13 05:22:33;;;;;;;9.87;5.70;;;16.90;99.90;;;;;;4438383;32;20187;-76
2021/08/13 05:25:09;;;;;;;8.03;5.90;;;16.90;99.90;;;;;;4439825;32;20139;-75
2021/08/13 05:27:36;;;;;;;9.87;5.97;;;17.00;99.90;;;;;;4437784;32;20158;-75
2021/08/13 05:30:04;;;;;;;9.90;6.00;;;17.20;99.90;;;;;;4438685;32;20425;-76
2021/08/13 05:32:31;;;;;;;11.60;5.43;;;17.20;99.90;;;;;;4438070;32;20169;-76
2021/08/13 05:34:58;;;;;;;9.10;5.70;;;17.30;99.90;;;;;;4438321;32;20138;-76
2021/08/13 05:37:24;;;;;;;9.53;5.80;;;17.50;99.90;;;;;;4439649;32;20289;-76
2021/08/13 05:39:51;;;;;;;9.63;5.87;;;17.60;99.90;;;;;;4440037;32;20206;-76
2021/08/13 05:42:18;;;;;;;8.87;5.13;;;17.70;99.90;;;;;;4442794;32;20186;-76
2021/08/13 05:44:45;;;;;;;8.00;5.57;;;17.80;99.90;;;;;;4442004;32;20143;-76
2021/08/13 05:47:11;;;;;;;10.63;5.83;;;17.90;99.90;;;;;;4442753;32;20407;-76
2021/08/13 05:49:38;;;;;;;12.60;5.83;;;18.00;99.90;;;;;;4442375;32;20445;-76
2021/08/13 05:52:05;;;;;;;9.13;5.30;;;18.10;99.90;;;;;;4441340;32;20544;-76
2021/08/13 05:54:32;;;;;;;10.93;5.60;;;18.20;99.90;;;;;;4442640;32;20344;-76
2021/08/13 05:56:59;;;;;;;9.23;5.10;;;18.20;99.90;;;;;;4440936;32;20135;-76
2021/08/13 05:59:26;;;;;;;8.37;4.83;;;18.30;99.90;;;;;;4442491;32;20159;-77
2021/08/13 06:01:52;;;;;;;9.17;5.07;;;18.40;99.90;;;;;;4442576;32;20131;-76
2021/08/13 06:04:19;;;;;;;9.57;5.30;;;18.50;99.90;;;;;;4441878;32;20449;-77
2021/08/13 06:06:46;;;;;;;9.40;5.57;;;18.60;99.90;;;;;;4442361;32;20184;-76
2021/08/13 06:09:13;;;;;;;9.40;5.10;;;18.70;99.90;;;;;;4440554;32;20441;-77
2021/08/13 06:11:40;;;;;;;10.30;5.13;;;18.80;99.90;;;;;;4442203;32;20134;-77
2021/08/13 06:14:07;;;;;;;9.27;5.00;;;18.90;99.90;;;;;;4441843;32;20139;-76
2021/08/13 06:16:34;;;;;;;7.43;4.90;;;19.00;99.90;;;;;;4442356;32;20143;-78
2021/08/13 06:19:01;;;;;;;9.00;5.07;;;19.10;99.90;;;;;;4441827;32;20136;-78
2021/08/13 06:21:31;;;;;;;7.53;5.00;;;19.20;99.90;;;;;;4442047;32;20401;-78
2021/08/13 06:23:58;;;;;;;7.70;4.90;;;19.30;99.90;;;;;;4442077;32;20188;-78
2021/08/13 06:26:25;;;;;;;9.27;4.90;;;19.40;99.90;;;;;;4440139;32;20186;-77
2021/08/13 06:28:52;;;;;;;6.27;4.50;;;19.50;99.90;;;;;;4441361;32;20159;-77
2021/08/13 06:31:19;;;;;;;8.23;5.00;;;19.50;99.90;;;;;;4442234;32;20409;-75
2021/08/13 06:33:46;;;;;;;6.73;4.50;;;19.70;99.90;;;;;;4441801;32;20134;-76
2021/08/13 06:36:13;;;;;;;6.73;4.60;;;19.70;99.90;;;;;;4442015;32;20155;-76
2021/08/13 06:38:39;;;;;;;8.13;4.60;;;19.80;99.90;;;;;;4441871;32;20190;-77
2021/08/13 06:41:06;;;;;;;6.67;4.60;;;19.90;99.90;;;;;;4441707;32;20412;-75
2021/08/13 06:43:33;;;;;;;9.70;4.90;;;20.00;99.90;;;;;;4441811;32;20418;-75
2021/08/13 06:46:00;;;;;;;8.00;4.73;;;20.20;99.90;;;;;;4441527;32;20226;-76
2021/08/13 06:48:26;;;;;;;6.93;4.60;;;20.30;99.90;;;;;;4440472;32;20157;-75
2021/08/13 06:50:53;;;;;;;6.50;4.00;;;20.50;99.90;;;;;;4440247;32;20264;-76
2021/08/13 06:53:20;;;;;;;6.90;4.33;;;20.60;99.90;;;;;;4441352;32;20157;-75
2021/08/13 06:55:47;;;;;;;6.97;4.30;;;20.70;99.90;;;;;;4441586;32;20416;-75
2021/08/13 06:58:14;;;;;;;7.27;4.20;;;20.80;99.90;;;;;;4440658;32;20512;-75
2021/08/13 07:00:41;;;;;;;7.50;4.30;;;20.80;99.90;;;;;;4440203;32;20539;-76
2021/08/13 07:03:08;;;;;;;5.73;4.17;;;20.90;99.90;;;;;;4441016;32;20195;-76
2021/08/13 07:05:36;;;;;;;8.97;4.73;;;21.00;99.90;;;;;;4441598;32;20131;-76
2021/08/13 07:08:07;;;;;;;8.40;4.80;;;21.00;99.90;;;;;;4439409;32;20442;-75
2021/08/13 07:10:35;;;;;;;9.17;4.03;;;21.20;99.90;;;;;;4441339;32;20158;-75
2021/08/13 07:13:02;;;;;;;8.80;4.20;;;21.20;99.90;;;;;;4440977;32;20213;-75
2021/08/13 07:15:28;;;;;;;7.63;4.30;;;21.20;99.90;;;;;;4439807;32;20146;-76
2021/08/13 07:17:55;;;;;;;6.27;4.50;;;21.30;99.90;;;;;;4441294;32;20135;-74
2021/08/13 07:20:24;;;;;;;5.50;4.07;;;21.50;99.90;;;;;;4441112;32;20139;-76
2021/08/13 07:22:51;;;;;;;8.00;4.27;;;21.70;99.90;;;;;;4440803;32;20418;-76
2021/08/13 07:25:19;;;;;;;6.73;3.60;;;21.80;99.90;;;;;;4439990;32;20476;-76
2021/08/13 07:27:46;;;;;;;8.20;4.03;;;21.90;99.90;;;;;;4440927;32;20199;-75
2021/08/13 07:30:15;;;;;;;8.20;4.10;;;22.10;99.90;;;;;;4439999;32;20212;-75
2021/08/13 07:32:44;;;;;;;7.63;4.20;;;22.20;99.90;;;;;;4439528;32;20183;-75
2021/08/13 07:35:11;;;;;;;8.83;3.83;;;22.10;99.90;;;;;;4440959;32;20138;-74
2021/08/13 07:37:38;;;;;;;5.87;3.70;;;22.20;99.90;;;;;;4440990;32;20196;-75
2021/08/13 07:40:06;;;;;;;8.00;3.77;;;22.30;99.90;;;;;;4438976;32;20214;-75
2021/08/13 07:42:35;;;;;;;7.83;3.90;;;22.30;99.90;;;;;;4440238;32;20219;-74
2021/08/13 07:45:03;;;;;;;8.17;4.03;;;22.40;99.90;;;;;;4440338;32;20503;-76
2021/08/13 07:47:30;;;;;;;7.10;3.63;;;22.40;99.90;;;;;;4441088;32;20130;-75
2021/08/13 07:49:56;;;;;;;5.63;3.70;;;22.40;99.90;;;;;;4440798;32;20379;-75
2021/08/13 07:52:23;;;;;;;6.97;3.63;;;22.40;99.90;;;;;;4440089;32;20180;-74
2021/08/13 07:54:50;;;;;;;8.83;4.17;;;22.50;99.90;;;;;;4440503;32;20127;-74
2021/08/13 07:57:17;;;;;;;7.27;3.77;;;22.60;99.90;;;;;;4440748;32;20510;-74
2021/08/13 07:59:44;;;;;;;5.77;3.73;;;22.70;99.90;;;;;;4440476;32;20210;-74
2021/08/13 08:02:11;;;;;;;5.37;3.67;;;22.60;99.90;;;;;;4440921;32;20131;-74
2021/08/13 08:04:38;;;;;;;5.60;3.90;;;22.60;99.90;;;;;;4438867;32;20187;-74
2021/08/13 08:07:05;;;;;;;7.60;3.60;;;22.60;99.90;;;;;;4438809;32;20162;-74
2021/08/13 08:09:32;;;;;;;6.37;3.80;;;22.70;99.90;;;;;;4439037;32;20216;-74
2021/08/13 08:11:58;;;;;;;6.90;4.13;;;22.90;99.90;;;;;;4438677;32;20127;-75
2021/08/13 08:14:25;;;;;;;7.17;3.93;;;23.00;99.90;;;;;;4439101;32;20491;-74
2021/08/13 08:16:55;;;;;;;5.47;3.50;;;23.70;99.90;;;;;;4438932;32;20200;-74
2021/08/13 08:19:22;;;;;;;5.70;3.80;;;24.50;99.90;;;;;;4440579;32;20130;-74
2021/08/13 08:21:49;;;;;;;6.87;4.05;;;25.40;99.90;;;;;;4438644;32;20130;-74
2021/08/13 08:24:16;;;;;;;6.78;3.92;;;26.20;99.90;;;;;;4440361;32;20598;-74
2021/08/13 08:26:42;;;;;;;6.12;3.92;;;26.80;99.90;;;;;;4440318;32;20127;-74
2021/08/13 08:29:09;;;;;;;7.32;5.03;;;27.30;99.90;;;;;;4439554;32;20166;-73
2021/08/13 08:31:36;;;;;;;5.40;3.80;;;27.20;99.20;;;;;;4440410;32;20164;-75
2021/08/13 08:34:03;;;;;;;5.97;3.95;;;27.80;97.20;;;;;;4438543;32;20368;-74
2021/08/13 08:36:33;;;;;;;4.87;3.50;;;27.70;96.00;;;;;;4440281;32;20491;-74
2021/08/13 08:39:01;;;;;;;5.37;3.62;;;28.20;94.50;;;;;;4438566;32;20142;-74
2021/08/13 08:41:28;;;;;;;5.22;3.40;;;28.40;93.90;;;;;;4440371;32;20264;-75
2021/08/13 08:43:55;;;;;;;5.68;3.58;;;28.70;92.30;;;;;;4440775;32;20158;-75
2021/08/13 08:46:24;;;;;;;3.95;3.00;;;28.60;91.00;;;;;;4441008;32;20123;-74
2021/08/13 08:48:53;;;;;;;4.70;3.20;;;28.50;89.60;;;;;;4439730;32;20130;-74
2021/08/13 08:51:21;;;;;;;5.72;3.70;;;29.10;87.40;;;;;;4440074;32;20123;-74
2021/08/13 08:53:54;;;;;;;7.55;3.30;;;29.10;85.00;;;;;;4440240;32;20157;-74
2021/08/13 08:56:23;;;;;;;4.55;3.28;;;29.40;81.40;;;;;;4439094;32;20158;-74
2021/08/13 08:58:51;;;;;;;4.80;3.80;;;29.10;80.00;;;;;;4438672;32;20212;-75
2021/08/13 09:01:18;;;;;;;6.45;3.53;;;29.20;82.40;;;;;;4439968;32;20409;-74
2021/08/13 09:03:45;;;;;;;6.03;3.42;;;29.40;81.20;;;;;;4439345;32;20158;-74
2021/08/13 09:06:14;;;;;;;3.75;3.30;;;29.80;80.40;;;;;;4439790;32;20389;-73
2021/08/13 09:08:41;;;;;;;4.25;3.30;;;29.90;74.90;;;;;;4438224;32;20179;-73
2021/08/13 09:11:09;;;;;;;5.97;3.37;;;29.70;77.80;;;;;;4439948;32;20358;-74
2021/08/13 09:13:38;;;;;;;5.32;3.53;;;30.20;77.40;;;;;;4439592;32;20203;-74
2021/08/13 09:16:13;;;;;;;5.15;3.40;;;30.20;76.60;;;;;;4442118;32;20480;-74
2021/08/13 09:18:42;;;;;;;5.32;3.50;;;29.90;71.30;;;;;;4440352;32;20163;-73
2021/08/13 09:21:18;;;;;;;6.80;3.70;;;30.10;71.10;;;;;;4442078;32;20135;-73
2021/08/13 09:23:47;;;;;;;4.37;3.33;;;29.60;69.30;;;;;;4441024;32;20233;-73
2021/08/13 09:26:22;;;;;;;4.30;3.30;;;29.50;72.30;;;;;;4441074;32;20126;-74
2021/08/13 09:28:52;;;;;;;4.53;3.22;;;29.90;70.00;;;;;;4441689;32;20222;-73
2021/08/13 09:31:30;;;;;;;4.32;3.40;;;29.50;70.30;;;;;;4440748;32;20194;-73
2021/08/13 09:34:08;;;;;;;4.60;3.10;;;29.50;72.40;;;;;;4441437;32;20122;-73
2021/08/13 09:36:38;;;;;;;5.00;3.60;;;29.70;71.70;;;;;;4441323;32;20230;-72
2021/08/13 09:39:04;;;;;;;6.40;3.80;;;30.00;70.80;;;;;;4440592;32;20180;-72
2021/08/13 09:41:49;;;;;;;6.00;3.50;;;30.20;69.40;;;;;;4442620;32;20165;-72
2021/08/13 09:44:32;;;;;;;4.45;3.25;;;30.10;66.00;;;;;;4442684;32;20226;-73
2021/08/13 09:47:05;;;;;;;4.25;3.05;;;29.90;65.90;;;;;;4440905;32;20352;-72
2021/08/13 09:49:34;;;;;;;7.03;3.22;;;29.40;69.30;;;;;;4442457;32;20143;-74
2021/08/13 09:52:15;;;;;;;6.55;3.65;;;29.80;68.80;;;;;;4442170;32;20135;-75
2021/08/13 09:54:43;;;;;;;5.10;3.53;;;30.40;68.60;;;;;;4440711;32;20123;-74
2021/08/13 09:57:14;;;;;;;5.20;3.20;;;30.60;68.50;;;;;;4442306;32;20218;-76
2021/08/13 10:00:15;;;;;;;4.50;3.45;;;30.50;66.90;;;;;;4440605;32;20149;-74
2021/08/13 10:02:43;;;;;;;6.05;3.60;;;30.80;67.40;;;;;;4377718;32;20144;-73
2021/08/13 10:05:26;;;;;;;5.30;3.53;;;31.20;66.20;;;;;;4378729;32;20160;-73
2021/08/13 10:07:54;;;;;;;4.68;3.40;;;30.90;61.30;;;;;;4377540;32;20171;-73
2021/08/13 10:10:39;;;;;;;4.68;3.40;;;30.40;64.40;;;;;;4379442;32;20151;-72
2021/08/13 10:13:08;;;;;;;4.97;3.45;;;30.60;65.50;;;;;;4377630;32;20159;-74
2021/08/13 10:15:35;;;;;;;4.62;3.30;;;30.80;66.70;;;;;;4379350;32;20186;-73
2021/08/13 10:18:05;;;;;;;7.45;3.60;;;30.90;63.70;;;;;;4378853;32;20140;-73
2021/08/13 10:20:34;;;;;;;3.95;3.30;;;30.80;65.10;;;;;;4377634;32;20136;-73
2021/08/13 10:23:01;;;;;;;4.28;3.30;;;30.30;65.70;;;;;;4377542;32;20454;-73
2021/08/13 10:25:28;;;;;;;4.95;3.28;;;30.30;66.50;;;;;;4378920;32;20152;-73
2021/08/13 10:27:55;;;;;;;5.30;3.37;;;30.70;64.10;;;;;;4378311;32;20228;-72
2021/08/13 10:30:23;;;;;;;4.03;2.97;;;30.50;62.60;;;;;;4377328;32;20151;-73
2021/08/13 10:32:52;;;;;;;5.28;3.20;;;30.00;64.30;;;;;;4379124;32;20358;-73
2021/08/13 10:35:19;;;;;;;8.23;3.47;;;30.90;65.30;;;;;;4378939;32;20178;-73
2021/08/13 10:37:47;;;;;;;4.82;3.47;;;31.30;60.30;;;;;;4394646;32;20552;-73
2021/08/13 10:40:17;;;;;;;4.37;3.20;;;31.90;62.20;;;;;;4441539;32;20176;-73
2021/08/13 10:42:45;;;;;;;5.05;3.45;;;31.80;60.00;;;;;;4441772;32;20230;-73
2021/08/13 10:45:21;;;;;;;4.00;3.35;;;32.00;58.30;;;;;;4440974;32;20175;-74
2021/08/13 10:48:24;;;;;;;4.93;3.08;;;31.50;59.40;;;;;;4440292;32;20504;-73
2021/08/13 10:50:56;;;;;;;5.18;3.20;;;30.30;60.90;;;;;;4439656;32;20122;-73
2021/08/13 10:53:31;;;;;;;5.50;3.20;;;30.80;63.20;;;;;;4439783;32;20178;-74
2021/08/13 10:56:03;;;;;;;6.28;3.70;;;31.30;62.20;;;;;;4441124;32;20134;-73
2021/08/13 10:58:51;;;;;;;6.32;3.17;;;31.60;60.30;;;;;;4439776;32;20271;-74
2021/08/13 11:01:20;;;;;;;4.35;2.95;;;31.80;58.50;;;;;;4441220;32;20392;-74
2021/08/13 11:03:53;;;;;;;4.68;3.00;;;31.80;56.80;;;;;;4441400;32;20172;-74
2021/08/13 11:06:39;;;;;;;4.40;3.00;;;32.00;58.20;;;;;;4441227;32;20154;-74
2021/08/13 11:09:06;;;;;;;5.65;3.22;;;32.30;54.80;;;;;;4439179;32;20175;-74
2021/08/13 11:11:59;;;;;;;5.62;2.85;;;32.50;56.30;;;;;;4440404;32;20162;-74
2021/08/13 11:14:28;;;;;;;5.00;3.20;;;32.40;56.20;;;;;;4441672;32;20170;-74
2021/08/13 11:16:56;;;;;;;3.80;2.92;;;32.30;55.70;;;;;;4441581;32;20135;-74
2021/08/13 11:19:24;;;;;;;5.62;2.97;;;32.50;53.70;;;;;;4441548;32;20167;-74
2021/08/13 11:21:58;;;;;;;3.85;3.10;;;32.80;55.60;;;;;;4440422;32;20161;-74
2021/08/13 11:24:46;;;;;;;4.28;2.90;;;33.10;53.70;;;;;;4441339;32;20123;-74
2021/08/13 11:27:13;;;;;;;4.53;3.00;;;33.10;55.10;;;;;;4439733;32;20138;-74
2021/08/13 11:29:44;;;;;;;3.70;2.90;;;33.10;52.90;;;;;;4439353;32;20169;-74
2021/08/13 11:32:13;;;;;;;4.10;2.78;;;32.80;54.10;;;;;;4441391;32;20161;-74
2021/08/13 11:34:49;;;;;;;4.15;3.12;;;33.10;53.80;;;;;;4439245;32;20185;-74
2021/08/13 11:37:31;;;;;;;4.93;3.08;;;33.50;54.80;;;;;;4440554;32;20811;-74
2021/08/13 11:40:01;;;;;;;4.65;3.00;;;33.40;52.90;;;;;;4440926;32;20176;-74
2021/08/13 11:42:31;;;;;;;3.72;2.85;;;33.60;51.30;;;;;;4441189;32;20122;-74
2021/08/13 11:45:01;;;;;;;3.17;2.55;;;33.50;51.40;;;;;;4441087;32;20149;-74
2021/08/13 11:47:28;;;;;;;4.00;3.00;;;33.60;52.60;;;;;;4440672;32;20183;-74
2021/08/13 11:49:56;;;;;;;3.25;2.83;;;33.70;52.80;;;;;;4440739;32;20127;-74
2021/08/13 11:52:26;;;;;;;4.85;3.33;;;33.90;54.10;;;;;;4440319;32;20142;-74
2021/08/13 11:54:53;;;;;;;5.10;3.20;;;34.00;52.70;;;;;;4440581;32;20179;-74
2021/08/13 11:57:22;;;;;;;5.37;2.90;;;33.90;51.60;;;;;;4438949;32;20238;-75
2021/08/13 11:59:50;;;;;;;4.75;3.05;;;34.00;53.40;;;;;;4439012;32;20131;-74
2021/08/13 12:02:28;;;;;;;5.45;3.25;;;34.50;52.80;;;;;;4440656;32;20499;-73
2021/08/13 12:05:06;;;;;;;6.60;2.92;;;34.50;50.80;;;;;;4440376;32;20123;-74
2021/08/13 12:07:34;;;;;;;3.92;2.83;;;34.70;52.00;;;;;;4439852;32;20156;-74
2021/08/13 12:10:15;;;;;;;4.60;3.15;;;35.10;51.10;;;;;;4438634;32;20479;-73
2021/08/13 12:12:43;;;;;;;3.58;3.03;;;34.30;51.50;;;;;;4439193;32;20156;-73
2021/08/13 12:15:11;;;;;;;4.32;3.10;;;34.70;52.20;;;;;;4440602;32;20127;-74
2021/08/13 12:17:38;;;;;;;4.65;3.33;;;34.20;51.30;;;;;;4438745;32;20157;-74
2021/08/13 12:20:07;;;;;;;4.07;3.30;;;33.60;51.70;;;;;;4439775;32;20138;-74
2021/08/13 12:22:40;;;;;;;6.10;3.25;;;34.00;52.20;;;;;;4439927;32;20179;-74
2021/08/13 12:25:09;;;;;;;4.87;2.95;;;34.10;51.90;;;;;;4438346;32;20197;-74
2021/08/13 12:27:38;;;;;;;4.50;2.75;;;34.50;51.70;;;;;;4440032;32;20146;-74
2021/08/13 12:30:25;;;;;;;3.75;2.92;;;35.10;50.10;;;;;;4439079;32;20388;-74
2021/08/13 12:32:53;;;;;;;4.32;2.90;;;35.40;48.30;;;;;;4438414;32;20464;-74
2021/08/13 12:35:21;;;;;;;5.70;3.53;;;35.50;49.60;;;;;;4438472;32;20383;-74
2021/08/13 12:37:48;;;;;;;4.15;3.03;;;35.50;49.20;;;;;;4439939;32;20134;-74
2021/08/13 12:40:17;;;;;;;3.78;3.15;;;35.60;48.90;;;;;;4438659;32;20150;-75
2021/08/13 12:42:46;;;;;;;4.93;3.45;;;35.50;47.60;;;;;;4440249;32;20492;-74
2021/08/13 12:45:14;;;;;;;4.72;3.40;;;35.40;48.80;;;;;;4439568;32;20123;-74
2021/08/13 12:47:46;;;;;;;5.37;3.03;;;35.40;49.80;;;;;;4438513;32;20478;-75
2021/08/13 12:50:20;;;;;;;4.18;3.20;;;34.90;48.50;;;;;;4439460;32;20153;-74
2021/08/13 12:53:02;;;;;;;5.68;3.20;;;35.00;48.60;;;;;;4439930;32;20249;-74
2021/08/13 12:55:55;;;;;;;4.10;3.10;;;35.30;48.20;;;;;;4439986;32;20127;-73
2021/08/13 12:58:32;;;;;;;4.12;3.22;;;35.10;46.80;;;;;;4435387;32;20228;-73